Time;durP1;ratioP1;P1;durP2;ratioP2;P2;SDS_P1;SDS_P2;PMS_P1;PMS_P2;Temp;Humidity;BMP_temperature;BMP_pressure;BME280_temperature;BME280_humidity;BME280_pressure;Samples;Min_cycle;Max_cycle;Signal;HPM_P1;HPM_P2
2022/02/28 00:01:43;;;;;;;7.95;5.10;;;0.00;1.00;;;;;;5054878;28;20188;-74
2022/02/28 00:04:10;;;;;;;6.43;4.68;;;0.00;1.00;;;;;;5054607;28;20164;-74
2022/02/28 00:06:37;;;;;;;6.45;4.82;;;0.00;1.00;;;;;;5054786;28;20183;-74
2022/02/28 00:09:08;;;;;;;16.58;5.00;;;-0.10;1.00;;;;;;5054039;28;20172;-74
2022/02/28 00:11:44;;;;;;;5.88;4.60;;;-0.10;1.00;;;;;;5054357;28;20267;-74
2022/02/28 00:14:09;;;;;;;9.73;5.00;;;-0.10;1.00;;;;;;5054325;28;20255;-74
2022/02/28 00:16:35;;;;;;;7.97;4.63;;;-0.20;1.00;;;;;;5054835;28;20258;-74
2022/02/28 00:19:02;;;;;;;11.10;4.70;;;-0.20;1.00;;;;;;5054411;28;20211;-74
2022/02/28 00:21:28;;;;;;;6.15;4.53;;;;;;;;;;5054509;28;20732;-74
2022/02/28 00:24:02;;;;;;;7.13;5.32;;;-0.20;1.00;;;;;;5053069;28;20266;-74
2022/02/28 00:26:28;;;;;;;7.80;4.72;;;;;;;;;;5059178;28;20255;-74
2022/02/28 00:28:53;;;;;;;8.73;4.57;;;-0.30;1.00;;;;;;5067129;28;20163;-74
2022/02/28 00:31:20;;;;;;;16.50;4.60;;;-0.30;1.00;;;;;;5054730;28;20188;-74
2022/02/28 00:33:46;;;;;;;12.73;4.72;;;-0.30;1.00;;;;;;5054196;28;20503;-74
2022/02/28 00:36:13;;;;;;;9.07;4.90;;;-0.40;1.00;;;;;;5053969;28;20176;-75
2022/02/28 00:38:39;;;;;;;6.95;5.22;;;-0.40;1.00;;;;;;5054044;28;20737;-75
2022/02/28 00:41:05;;;;;;;6.87;4.97;;;;;;;;;;5053865;28;20192;-74
2022/02/28 00:43:38;;;;;;;9.90;4.63;;;;;;;;;;5053786;28;20531;-75
2022/02/28 00:46:14;;;;;;;7.47;4.03;;;-0.50;1.00;;;;;;5053536;28;20168;-74
2022/02/28 00:48:40;;;;;;;7.07;5.10;;;-0.50;1.00;;;;;;5054212;28;20171;-74
2022/02/28 00:51:05;;;;;;;6.20;4.90;;;-0.60;1.00;;;;;;5053364;28;20195;-74
2022/02/28 00:53:31;;;;;;;9.33;5.33;;;-0.60;1.00;;;;;;5053483;28;20171;-74
2022/02/28 00:55:57;;;;;;;7.20;4.70;;;-0.60;1.00;;;;;;5053412;28;20257;-74
2022/02/28 00:58:32;;;;;;;11.47;5.30;;;-0.70;1.00;;;;;;5053932;28;20255;-74
2022/02/28 01:00:57;;;;;;;11.55;5.28;;;-0.70;1.00;;;;;;5053672;28;20448;-74
2022/02/28 01:03:24;;;;;;;9.50;5.03;;;-2.10;1.00;;;;;;5054190;28;20152;-74
2022/02/28 01:05:50;;;;;;;9.00;4.88;;;-0.80;1.00;;;;;;5053830;28;20247;-74
2022/02/28 01:08:20;;;;;;;12.57;5.50;;;-0.70;1.00;;;;;;5053788;28;20584;-74
2022/02/28 01:10:48;;;;;;;18.45;6.35;;;-0.80;1.00;;;;;;5053620;28;20174;-75
2022/02/28 01:13:14;;;;;;;9.38;5.50;;;-0.80;1.00;;;;;;5052210;28;20172;-75
2022/02/28 01:15:40;;;;;;;13.50;4.97;;;-0.80;1.00;;;;;;5053481;28;20160;-74
2022/02/28 01:18:08;;;;;;;11.00;6.07;;;-0.80;1.00;;;;;;5054066;28;20163;-74
2022/02/28 01:20:34;;;;;;;19.88;5.88;;;-0.90;1.00;;;;;;5053364;28;20195;-74
2022/02/28 01:23:02;;;;;;;8.82;5.30;;;-0.90;1.00;;;;;;5053657;28;20160;-74
2022/02/28 01:25:28;;;;;;;10.63;5.50;;;-0.90;1.00;;;;;;5053579;28;20247;-74
2022/02/28 01:27:54;;;;;;;13.95;4.95;;;-0.90;1.00;;;;;;5045161;28;20223;-74
2022/02/28 01:30:26;;;;;;;17.70;5.10;;;-0.90;1.00;;;;;;5052968;28;20230;-74
2022/02/28 01:32:52;;;;;;;13.70;5.40;;;-0.90;1.00;;;;;;5053515;28;20414;-74
2022/02/28 01:35:17;;;;;;;12.67;5.20;;;-0.90;1.00;;;;;;5053233;28;20159;-74
2022/02/28 01:37:50;;;;;;;9.23;6.00;;;-1.00;1.00;;;;;;5053454;28;20466;-74
2022/02/28 01:40:16;;;;;;;11.80;5.60;;;-1.00;1.00;;;;;;5052609;28;20545;-74
2022/02/28 01:42:42;;;;;;;15.37;5.10;;;-1.10;1.00;;;;;;5050173;28;20180;-75
2022/02/28 01:45:10;;;;;;;9.38;5.38;;;-1.10;1.00;;;;;;5052069;28;20422;-75
2022/02/28 01:47:36;;;;;;;13.70;5.78;;;-1.10;1.00;;;;;;5052717;28;20180;-74
2022/02/28 01:50:03;;;;;;;6.30;4.43;;;-1.10;1.00;;;;;;5052311;28;20167;-74
2022/02/28 01:52:28;;;;;;;9.38;5.47;;;-1.10;1.00;;;;;;5051682;28;20825;-74
2022/02/28 01:54:54;;;;;;;9.50;5.47;;;-1.10;1.00;;;;;;5052303;28;20174;-74
2022/02/28 01:57:20;;;;;;;9.77;5.10;;;-1.20;1.00;;;;;;5050813;28;20187;-74
2022/02/28 01:59:46;;;;;;;10.10;5.73;;;-1.20;1.00;;;;;;5052102;28;20175;-74
2022/02/28 02:02:11;;;;;;;8.52;4.90;;;-1.20;1.00;;;;;;5052286;28;20175;-74
2022/02/28 02:04:37;;;;;;;10.60;5.37;;;-1.20;1.00;;;;;;5052243;28;20199;-74
2022/02/28 02:07:04;;;;;;;7.18;4.57;;;-0.70;1.00;;;;;;5055188;28;20217;-74
2022/02/28 02:09:34;;;;;;;9.52;4.22;;;-1.20;1.00;;;;;;5055709;28;20251;-74
2022/02/28 02:12:01;;;;;;;7.72;4.90;;;-1.20;1.00;;;;;;5056435;28;20168;-74
2022/02/28 02:14:27;;;;;;;8.60;4.70;;;-1.20;1.00;;;;;;5055925;28;20684;-74
2022/02/28 02:16:53;;;;;;;7.85;4.95;;;-1.20;1.00;;;;;;5055536;28;20195;-74
2022/02/28 02:19:19;;;;;;;9.80;4.97;;;;;;;;;;5056061;28;20203;-74
2022/02/28 02:21:44;;;;;;;10.70;5.10;;;-1.20;1.00;;;;;;5055002;28;20219;-74
2022/02/28 02:24:10;;;;;;;9.70;4.70;;;;;;;;;;5054474;28;20180;-74
2022/02/28 02:26:36;;;;;;;10.67;5.63;;;-1.30;1.00;;;;;;5055527;28;20176;-74
2022/02/28 02:29:02;;;;;;;9.67;5.53;;;-1.30;1.00;;;;;;5055230;28;20476;-75
2022/02/28 02:31:28;;;;;;;8.25;5.15;;;-1.30;1.00;;;;;;5054983;28;20164;-74
2022/02/28 02:33:54;;;;;;;13.90;5.30;;;;;;;;;;5056056;28;20164;-74
2022/02/28 02:36:19;;;;;;;7.80;5.00;;;-1.30;1.00;;;;;;5062696;28;20203;-74
2022/02/28 02:38:46;;;;;;;7.20;4.60;;;-1.30;1.00;;;;;;5053993;28;20636;-74
2022/02/28 02:41:12;;;;;;;6.97;4.70;;;-1.30;1.00;;;;;;5055457;28;20194;-75
2022/02/28 02:43:38;;;;;;;9.80;5.10;;;;;;;;;;5055249;28;20160;-74
2022/02/28 02:46:04;;;;;;;7.40;5.10;;;-1.30;1.00;;;;;;5054696;28;20196;-74
2022/02/28 02:48:30;;;;;;;9.65;5.85;;;-1.30;1.00;;;;;;5055519;28;20890;-74
2022/02/28 02:50:56;;;;;;;22.13;13.53;;;-1.30;1.00;;;;;;5054849;28;20174;-74
2022/02/28 02:53:22;;;;;;;20.35;11.10;;;-1.40;1.00;;;;;;5055167;28;20489;-74
2022/02/28 02:55:48;;;;;;;25.38;15.88;;;;;;;;;;5055081;28;20168;-74
2022/02/28 02:58:14;;;;;;;23.55;15.30;;;;;;;;;;5055055;28;20609;-74
2022/02/28 03:00:50;;;;;;;12.55;6.30;;;-1.40;1.00;;;;;;5054841;28;20555;-74
2022/02/28 03:03:19;;;;;;;12.38;6.47;;;-1.40;1.00;;;;;;5035502;28;20566;-74
2022/02/28 03:05:46;;;;;;;8.90;5.35;;;-1.40;1.00;;;;;;5039758;28;20521;-74
2022/02/28 03:08:12;;;;;;;7.60;4.93;;;-1.50;1.00;;;;;;5053757;28;20605;-74
2022/02/28 03:10:38;;;;;;;11.33;5.00;;;-1.50;1.00;;;;;;5054637;28;20188;-74
2022/02/28 03:13:03;;;;;;;10.30;6.40;;;-1.50;1.00;;;;;;5054774;28;20418;-74
2022/02/28 03:15:29;;;;;;;10.03;5.83;;;-1.50;1.00;;;;;;5052327;28;20188;-74
2022/02/28 03:17:55;;;;;;;14.30;6.07;;;;;;;;;;5054189;28;20163;-74
2022/02/28 03:20:21;;;;;;;6.35;4.88;;;-1.50;1.00;;;;;;5054292;28;20672;-74
2022/02/28 03:22:47;;;;;;;7.33;4.73;;;;;;;;;;5054313;28;20203;-74
2022/02/28 03:25:12;;;;;;;10.75;5.35;;;-1.40;1.00;;;;;;5054437;28;20310;-74
2022/02/28 03:27:38;;;;;;;9.10;5.20;;;;;;;;;;5054600;28;20253;-74
2022/02/28 03:30:06;;;;;;;8.60;5.40;;;-1.40;1.00;;;;;;5054297;28;20262;-74
2022/02/28 03:32:31;;;;;;;10.27;5.75;;;-1.40;1.00;;;;;;5054163;28;20444;-74
2022/02/28 03:34:57;;;;;;;6.87;5.03;;;-1.50;1.00;;;;;;5054556;28;20632;-74
2022/02/28 03:37:22;;;;;;;8.20;5.17;;;-1.50;1.00;;;;;;5053924;28;20167;-74
2022/02/28 03:39:48;;;;;;;8.63;5.43;;;-1.50;1.00;;;;;;5053979;28;20639;-74
2022/02/28 03:42:14;;;;;;;11.03;7.07;;;-1.50;1.00;;;;;;5053446;28;20164;-74
2022/02/28 03:44:40;;;;;;;10.65;6.03;;;-1.50;1.00;;;;;;5053781;28;20144;-74
2022/02/28 03:47:08;;;;;;;6.97;5.20;;;-1.50;1.00;;;;;;5053872;28;20497;-74
2022/02/28 03:49:33;;;;;;;12.02;6.07;;;-1.50;1.00;;;;;;5054511;28;20402;-74
2022/02/28 03:52:00;;;;;;;12.00;6.03;;;;;;;;;;5053511;28;20528;-74
2022/02/28 03:54:26;;;;;;;8.70;5.72;;;-1.50;1.00;;;;;;5054216;28;20163;-74
2022/02/28 03:56:56;;;;;;;10.30;5.70;;;-1.50;1.00;;;;;;5052616;28;20188;-75
2022/02/28 03:59:21;;;;;;;13.40;5.65;;;-1.60;1.00;;;;;;5053949;28;20164;-74
2022/02/28 04:01:47;;;;;;;12.67;5.40;;;-1.60;1.00;;;;;;5053538;28;20709;-74
2022/02/28 04:04:12;;;;;;;13.20;5.70;;;-1.60;1.00;;;;;;5054248;28;20172;-74
2022/02/28 04:06:38;;;;;;;7.70;4.87;;;-1.60;1.00;;;;;;5053520;28;20164;-74
2022/02/28 04:09:05;;;;;;;6.27;5.10;;;-1.60;1.00;;;;;;5053800;28;20164;-74
2022/02/28 04:11:33;;;;;;;10.20;5.97;;;-1.60;1.00;;;;;;5052417;28;20195;-75
2022/02/28 04:13:59;;;;;;;10.18;6.15;;;-1.60;1.00;;;;;;5053365;28;20573;-74
2022/02/28 04:16:25;;;;;;;16.23;6.57;;;-1.70;1.00;;;;;;5053442;28;20172;-74
2022/02/28 04:18:51;;;;;;;9.20;5.97;;;;;;;;;;5054088;28;20175;-74
2022/02/28 04:21:17;;;;;;;10.30;6.10;;;;;;;;;;5053186;28;20879;-75
2022/02/28 04:23:43;;;;;;;9.00;5.97;;;-1.60;1.00;;;;;;5053310;28;20452;-75
2022/02/28 04:26:08;;;;;;;10.33;6.53;;;-1.70;1.00;;;;;;5053519;28;20397;-74
2022/02/28 04:28:34;;;;;;;7.93;5.90;;;-1.70;1.00;;;;;;5053189;28;20252;-74
2022/02/28 04:31:00;;;;;;;12.87;6.40;;;-1.60;1.00;;;;;;5053148;28;20226;-74
2022/02/28 04:33:25;;;;;;;13.00;6.27;;;-1.70;1.00;;;;;;5053473;28;20706;-73
2022/02/28 04:35:51;;;;;;;12.50;6.67;;;-1.60;1.00;;;;;;5052936;28;20171;-74
2022/02/28 04:38:17;;;;;;;7.50;5.57;;;;;;;;;;5053292;28;20156;-74
2022/02/28 04:40:42;;;;;;;8.70;5.93;;;-1.70;1.00;;;;;;5052499;28;20241;-75
2022/02/28 04:43:08;;;;;;;12.30;6.37;;;;;;;;;;5052839;28;20410;-74
2022/02/28 04:45:34;;;;;;;11.30;6.53;;;;;;;;;;5051339;28;20221;-74
2022/02/28 04:48:00;;;;;;;10.60;5.90;;;;;;;;;;5053378;28;20448;-74
2022/02/28 04:50:26;;;;;;;9.73;6.30;;;;;;;;;;5053199;28;20419;-74
2022/02/28 04:52:52;;;;;;;8.55;6.18;;;-1.80;1.00;;;;;;5052575;28;20564;-74
2022/02/28 04:55:22;;;;;;;12.27;5.53;;;;;;;;;;5052978;28;20163;-74
2022/02/28 04:57:49;;;;;;;10.45;6.20;;;-1.90;1.00;;;;;;5052712;28;20164;-74
2022/02/28 05:00:15;;;;;;;10.00;6.68;;;-1.90;1.00;;;;;;5052633;28;20179;-74
2022/02/28 05:02:44;;;;;;;12.32;6.25;;;-1.90;1.00;;;;;;5050628;28;20253;-74
2022/02/28 05:05:09;;;;;;;14.38;6.53;;;-1.90;1.00;;;;;;5053101;28;20182;-74
2022/02/28 05:07:35;;;;;;;11.07;6.60;;;;;;;;;;5052577;28;20168;-74
2022/02/28 05:10:01;;;;;;;8.70;6.10;;;;;;;;;;5052454;28;20183;-74
2022/02/28 05:12:27;;;;;;;11.43;6.57;;;;;;;;;;5052781;28;20769;-74
2022/02/28 05:14:53;;;;;;;10.60;6.37;;;-2.00;1.00;;;;;;5052548;28;20497;-74
2022/02/28 05:17:19;;;;;;;12.03;7.07;;;;;;;;;;5052825;28;20875;-74
2022/02/28 05:19:45;;;;;;;10.73;6.28;;;-2.10;1.00;;;;;;5052652;28;20191;-74
2022/02/28 05:22:11;;;;;;;12.57;6.63;;;;;;;;;;5052622;28;20168;-74
2022/02/28 05:24:37;;;;;;;11.03;6.63;;;;;;;;;;5052270;28;20213;-75
2022/02/28 05:27:03;;;;;;;11.88;6.75;;;;;;;;;;5052420;28;20417;-75
2022/02/28 05:29:29;;;;;;;12.32;7.07;;;;;;;;;;5052424;28;20167;-75
2022/02/28 05:31:55;;;;;;;10.20;6.65;;;-2.00;1.00;;;;;;5052452;28;20183;-75
2022/02/28 05:34:22;;;;;;;9.90;6.32;;;-2.10;1.00;;;;;;5052636;28;20263;-74
2022/02/28 05:36:48;;;;;;;14.38;7.10;;;;;;;;;;5052459;28;20168;-74
2022/02/28 05:39:13;;;;;;;18.50;6.70;;;;;;;;;;5051778;28;20172;-74
2022/02/28 05:41:40;;;;;;;12.73;6.70;;;;;;;;;;5054825;28;20449;-74
2022/02/28 05:44:05;;;;;;;12.90;7.07;;;-2.00;1.00;;;;;;5055908;28;20450;-74
2022/02/28 05:46:31;;;;;;;9.37;6.50;;;;;;;;;;5056281;28;20612;-74
2022/02/28 05:48:58;;;;;;;12.35;7.13;;;-2.00;1.00;;;;;;5056090;28;20172;-75
2022/02/28 05:51:25;;;;;;;9.88;6.72;;;-2.00;1.00;;;;;;5055288;28;20219;-74
2022/02/28 05:53:52;;;;;;;11.30;6.82;;;-2.00;1.00;;;;;;5047641;28;20254;-75
2022/02/28 05:56:17;;;;;;;16.23;6.93;;;-2.00;1.00;;;;;;5054924;28;20183;-74
2022/02/28 05:58:44;;;;;;;14.97;7.97;;;-2.00;1.00;;;;;;5056078;28;20462;-74
2022/02/28 06:01:10;;;;;;;10.05;6.20;;;-2.00;1.00;;;;;;5056043;28;20253;-75
2022/02/28 06:03:35;;;;;;;8.90;5.70;;;-2.00;1.00;;;;;;5055984;28;20637;-75
2022/02/28 06:06:02;;;;;;;16.60;7.30;;;-2.00;1.00;;;;;;5056361;28;20516;-75
2022/02/28 06:08:28;;;;;;;17.13;6.78;;;-2.00;1.00;;;;;;5055629;28;20433;-75
2022/02/28 06:10:54;;;;;;;13.73;6.57;;;;;;;;;;5055954;28;20254;-75
2022/02/28 06:13:20;;;;;;;14.00;6.77;;;;;;;;;;5055632;28;20603;-75
2022/02/28 06:15:46;;;;;;;13.17;6.33;;;;;;;;;;5055801;28;20410;-75
2022/02/28 06:18:12;;;;;;;10.13;5.70;;;;;;;;;;5055426;28;20452;-75
2022/02/28 06:20:39;;;;;;;13.48;6.63;;;-2.00;1.00;;;;;;5055777;28;20450;-75
2022/02/28 06:23:09;;;;;;;10.98;6.40;;;-2.00;1.00;;;;;;5055084;28;20175;-75
2022/02/28 06:25:36;;;;;;;11.52;6.20;;;-1.90;1.00;;;;;;5052244;28;20202;-75
2022/02/28 06:28:03;;;;;;;13.30;6.50;;;-2.00;1.00;;;;;;5052092;28;20182;-75
2022/02/28 06:30:29;;;;;;;10.82;6.30;;;-1.90;1.00;;;;;;5054872;28;20669;-75
2022/02/28 06:32:54;;;;;;;8.53;5.30;;;-1.80;1.00;;;;;;5054608;28;20267;-75
2022/02/28 06:35:20;;;;;;;12.80;6.23;;;-1.80;1.00;;;;;;5055936;28;20546;-74
2022/02/28 06:37:46;;;;;;;12.97;6.07;;;;;;;;;;5054847;28;20644;-74
2022/02/28 06:40:12;;;;;;;10.32;6.88;;;-1.80;1.00;;;;;;5054467;28;20200;-74
2022/02/28 06:42:37;;;;;;;10.35;6.18;;;-1.80;1.00;;;;;;5055057;28;20170;-74
2022/02/28 06:45:04;;;;;;;11.00;6.03;;;-1.80;1.00;;;;;;5054478;28;20262;-74
2022/02/28 06:47:29;;;;;;;11.95;6.75;;;-1.70;1.00;;;;;;5055447;28;20200;-74
2022/02/28 06:49:55;;;;;;;11.23;6.17;;;-1.60;1.00;;;;;;5055110;28;20179;-74
2022/02/28 06:52:23;;;;;;;9.40;6.10;;;;;;;;;;5047824;28;20198;-75
2022/02/28 06:54:52;;;;;;;8.77;5.97;;;-1.60;1.00;;;;;;5055395;28;20605;-75
2022/02/28 06:57:17;;;;;;;11.15;6.82;;;-1.60;1.00;;;;;;5054847;28;20259;-75
2022/02/28 06:59:43;;;;;;;11.80;7.07;;;;;;;;;;5054765;28;20267;-75
2022/02/28 07:02:09;;;;;;;10.80;6.05;;;-1.50;1.00;;;;;;5054540;28;20188;-75
2022/02/28 07:04:35;;;;;;;8.57;5.60;;;;;;;;;;5047484;28;20191;-74
2022/02/28 07:07:01;;;;;;;9.60;5.80;;;-1.40;1.00;;;;;;5051224;28;20187;-75
2022/02/28 07:09:26;;;;;;;10.77;6.37;;;-1.40;1.00;;;;;;5047096;28;20985;-75
2022/02/28 07:11:52;;;;;;;15.60;6.83;;;-1.30;1.00;;;;;;5053821;28;20210;-75
2022/02/28 07:14:18;;;;;;;17.93;6.60;;;;;;;;;;5054575;28;20218;-75
2022/02/28 07:16:44;;;;;;;9.73;6.25;;;;;;;;;;5054358;28;20171;-75
2022/02/28 07:19:09;;;;;;;12.00;6.20;;;-1.10;1.00;;;;;;5054303;28;20256;-75
2022/02/28 07:21:35;;;;;;;10.90;6.27;;;;;;;;;;5054578;28;20283;-74
2022/02/28 07:24:01;;;;;;;10.90;6.75;;;-0.90;1.00;;;;;;5053973;28;20179;-74
2022/02/28 07:26:29;;;;;;;14.03;6.77;;;-0.80;1.00;;;;;;5053363;28;20700;-74
2022/02/28 07:28:55;;;;;;;10.25;6.68;;;-0.80;1.00;;;;;;5048384;28;20771;-74
2022/02/28 07:31:21;;;;;;;13.50;7.10;;;-0.70;1.00;;;;;;5053097;28;20245;-74
2022/02/28 07:33:46;;;;;;;11.93;7.00;;;-0.60;1.00;;;;;;5049198;28;20434;-74
2022/02/28 07:36:13;;;;;;;11.17;6.30;;;;;;;;;;5054105;28;20558;-74
2022/02/28 07:38:39;;;;;;;12.00;6.32;;;-0.40;1.00;;;;;;5052455;28;20199;-74
2022/02/28 07:41:05;;;;;;;15.23;6.03;;;-0.30;1.00;;;;;;5051607;28;20202;-74
2022/02/28 07:43:31;;;;;;;24.83;6.55;;;-0.30;1.00;;;;;;5064438;28;20171;-74
2022/02/28 07:45:57;;;;;;;8.87;5.90;;;-0.20;1.00;;;;;;5053383;28;20301;-74
2022/02/28 07:48:23;;;;;;;16.97;6.87;;;;;;;;;;5054622;28;20230;-74
2022/02/28 07:50:48;;;;;;;10.18;6.30;;;0.00;1.00;;;;;;5053781;28;20172;-74
2022/02/28 07:53:14;;;;;;;9.33;6.17;;;2.00;1.00;;;;;;5053674;28;20171;-74
2022/02/28 07:55:40;;;;;;;10.67;6.53;;;0.20;1.00;;;;;;5053757;28;20168;-74
2022/02/28 07:58:05;;;;;;;11.83;6.10;;;0.40;1.00;;;;;;5052867;28;20258;-74
2022/02/28 08:00:32;;;;;;;9.30;5.80;;;0.50;1.00;;;;;;5051754;28;20528;-74
2022/02/28 08:02:58;;;;;;;8.50;6.15;;;0.60;1.00;;;;;;5054364;28;20171;-74
2022/02/28 08:05:38;;;;;;;10.53;5.97;;;0.80;1.00;;;;;;5053189;28;20184;-74
2022/02/28 08:08:04;;;;;;;13.38;6.68;;;0.90;1.00;;;;;;5052676;28;20517;-75
2022/02/28 08:10:30;;;;;;;12.48;7.30;;;1.00;1.00;;;;;;5052777;28;20190;-75
2022/02/28 08:12:56;;;;;;;9.77;6.20;;;1.10;1.00;;;;;;5053597;28;20163;-75
2022/02/28 08:15:22;;;;;;;13.00;8.30;;;1.30;1.00;;;;;;5053333;28;20480;-75
2022/02/28 08:17:50;;;;;;;13.00;6.73;;;1.40;1.00;;;;;;5053391;28;20191;-75
2022/02/28 08:20:15;;;;;;;17.40;6.53;;;1.60;1.00;;;;;;5052005;28;20485;-75
2022/02/28 08:22:41;;;;;;;10.37;6.80;;;;;;;;;;5053828;28;20215;-75
2022/02/28 08:25:07;;;;;;;18.03;7.33;;;2.00;1.00;;;;;;5052993;28;20192;-75
2022/02/28 08:27:33;;;;;;;15.43;7.33;;;;;;;;;;5053361;28;20428;-75
2022/02/28 08:29:59;;;;;;;15.00;7.97;;;2.10;1.00;;;;;;5053183;28;20445;-75
2022/02/28 08:32:26;;;;;;;13.93;8.65;;;;;;;;;;5053401;28;20152;-75
2022/02/28 08:34:51;;;;;;;16.00;9.10;;;2.20;1.00;;;;;;5048850;28;20759;-75
2022/02/28 08:37:17;;;;;;;15.90;5.97;;;;;;;;;;5053005;28;20271;-75
2022/02/28 08:39:43;;;;;;;12.45;6.82;;;2.80;1.00;;;;;;5048955;28;20202;-76
2022/02/28 08:42:14;;;;;;;11.30;5.70;;;2.90;1.00;;;;;;5052352;28;20656;-75
2022/02/28 08:44:40;;;;;;;12.20;5.75;;;3.00;1.00;;;;;;5052025;28;20180;-75
2022/02/28 08:47:14;;;;;;;8.98;5.15;;;3.30;1.00;;;;;;5053887;28;20301;-75
2022/02/28 08:49:44;;;;;;;12.15;6.38;;;3.30;1.00;;;;;;5053633;28;20175;-75
2022/02/28 08:52:11;;;;;;;15.48;6.68;;;3.30;1.00;;;;;;5040787;28;20216;-75
2022/02/28 08:54:50;;;;;;;11.23;5.60;;;3.50;1.00;;;;;;5045407;28;20179;-87
2022/02/28 08:57:26;;;;;;;10.68;6.05;;;3.60;1.00;;;;;;5053571;28;20258;-86
2022/02/28 09:00:13;;;;;;;12.48;5.53;;;3.60;1.00;;;;;;5054643;28;20206;-86
2022/02/28 09:02:44;;;;;;;8.88;5.60;;;3.70;1.00;;;;;;5053545;28;20262;-86
2022/02/28 09:05:10;;;;;;;10.20;5.53;;;3.90;1.00;;;;;;5040764;28;20180;-86
2022/02/28 09:07:37;;;;;;;12.50;5.77;;;;;;;;;;5042549;28;20278;-86
2022/02/28 09:10:04;;;;;;;12.20;5.50;;;4.10;1.00;;;;;;5049339;28;20219;-86
2022/02/28 09:12:30;;;;;;;8.10;5.13;;;;;;;;;;5053474;28;20194;-86
2022/02/28 09:14:56;;;;;;;12.88;6.40;;;;;;;;;;5053061;28;20433;-86
2022/02/28 09:17:26;;;;;;;11.27;5.70;;;4.40;1.00;;;;;;5052385;28;20184;-86
2022/02/28 09:19:52;;;;;;;16.40;5.20;;;4.50;1.00;;;;;;5053295;28;20394;-86
2022/02/28 09:22:18;;;;;;;10.83;5.93;;;4.50;1.00;;;;;;5052600;28;20508;-81
2022/02/28 09:24:44;;;;;;;10.80;5.70;;;4.60;1.00;;;;;;5052657;28;20191;-81
2022/02/28 09:27:10;;;;;;;15.70;6.50;;;;;;;;;;5051144;28;20439;-81
2022/02/28 09:29:36;;;;;;;12.13;5.80;;;;;;;;;;5052647;28;20446;-81
2022/02/28 09:32:03;;;;;;;9.27;5.53;;;4.80;1.00;;;;;;5052264;28;20414;-81
2022/02/28 09:34:29;;;;;;;10.77;6.10;;;;;;;;;;5048562;28;20481;-81
2022/02/28 09:36:55;;;;;;;11.37;5.77;;;;;;;;;;5051979;28;20456;-86
2022/02/28 09:39:22;;;;;;;11.87;5.43;;;;;;;;;;5050899;28;20427;-86
2022/02/28 09:41:48;;;;;;;11.30;6.20;;;5.30;1.00;;;;;;5048791;28;21776;-86
2022/02/28 09:44:15;;;;;;;11.10;6.00;;;5.30;1.00;;;;;;5051791;28;20768;-86
2022/02/28 09:46:45;;;;;;;10.83;5.50;;;5.50;1.00;;;;;;5051951;28;20434;-85
2022/02/28 09:49:11;;;;;;;9.67;5.67;;;5.50;1.00;;;;;;5052334;28;20422;-75
2022/02/28 09:51:38;;;;;;;11.33;5.60;;;5.80;1.00;;;;;;5051386;28;20938;-74
2022/02/28 09:54:04;;;;;;;8.93;5.83;;;5.80;1.00;;;;;;5052827;28;20425;-75
2022/02/28 09:56:30;;;;;;;10.23;6.20;;;5.90;1.00;;;;;;5052858;28;20708;-75
2022/02/28 09:58:56;;;;;;;9.30;6.20;;;;;;;;;;5052545;28;20840;-75
2022/02/28 10:01:26;;;;;;;9.90;5.87;;;6.00;1.00;;;;;;5052308;28;20457;-74
2022/02/28 10:04:08;;;;;;;12.00;6.00;;;6.10;1.00;;;;;;5048791;28;20913;-75
2022/02/28 10:06:36;;;;;;;9.43;5.33;;;6.10;1.00;;;;;;5045970;28;20445;-75
2022/02/28 10:09:08;;;;;;;9.17;5.80;;;6.20;1.00;;;;;;5051786;28;20433;-75
2022/02/28 10:11:41;;;;;;;8.83;5.17;;;6.30;1.00;;;;;;5059098;28;20441;-74
2022/02/28 10:14:09;;;;;;;8.87;5.70;;;6.40;1.00;;;;;;5052878;28;20410;-75
2022/02/28 10:16:40;;;;;;;10.90;6.37;;;6.60;1.00;;;;;;5052639;28;20434;-75
2022/02/28 10:19:29;;;;;;;10.57;5.73;;;6.60;1.00;;;;;;5052450;28;20887;-71
2022/02/28 10:22:01;;;;;;;8.75;5.50;;;6.70;1.00;;;;;;5070135;28;20332;-76
2022/02/28 10:24:42;;;;;;;10.90;6.97;;;6.80;1.00;;;;;;5052785;28;20180;-75
2022/02/28 10:27:11;;;;;;;10.27;6.40;;;6.80;1.00;;;;;;5058851;28;20441;-74
2022/02/28 10:29:42;;;;;;;10.57;6.23;;;6.90;1.00;;;;;;5054639;28;20504;-75
2022/02/28 10:32:10;;;;;;;10.10;5.57;;;7.10;1.00;;;;;;5058689;28;20430;-78
2022/02/28 10:37:22;;;;;;;16.43;7.03;;;7.10;1.00;;;;;;5075586;28;20924;-76
2022/02/28 10:39:58;;;;;;;10.23;5.87;;;7.10;1.00;;;;;;5054656;28;20430;-81
2022/02/28 10:42:24;;;;;;;14.10;5.83;;;8.10;1.00;;;;;;5054692;28;20620;-76
2022/02/28 10:45:20;;;;;;;10.33;6.50;;;7.30;1.00;;;;;;5061396;28;20421;-82
2022/02/28 10:47:47;;;;;;;9.53;5.90;;;7.40;1.00;;;;;;5073835;28;20498;-82
2022/02/28 10:50:28;;;;;;;10.40;6.33;;;7.50;1.00;;;;;;5075370;28;20499;-81
2022/02/28 10:52:55;;;;;;;12.50;6.30;;;7.80;1.00;;;;;;5055084;28;20437;-83
2022/02/28 10:55:34;;;;;;;10.57;6.43;;;7.70;1.00;;;;;;5059820;28;20529;-82
2022/02/28 10:58:10;;;;;;;13.43;6.33;;;7.70;1.00;;;;;;5075358;28;20412;-83
2022/02/28 11:00:57;;;;;;;10.43;6.30;;;7.80;1.00;;;;;;5073625;28;20551;-84
2022/02/28 11:03:27;;;;;;;11.70;6.30;;;7.80;1.00;;;;;;5060411;28;20426;-84
2022/02/28 11:05:58;;;;;;;9.73;6.43;;;7.80;1.00;;;;;;5064317;28;20445;-82
2022/02/28 11:08:26;;;;;;;12.47;5.93;;;7.80;1.00;;;;;;5064950;28;20406;-82
2022/02/28 11:11:06;;;;;;;10.40;6.00;;;9.60;1.00;;;;;;5059517;28;20507;-77
2022/02/28 11:13:38;;;;;;;12.27;6.23;;;8.00;1.00;;;;;;5055083;28;20914;-77
2022/02/28 11:16:09;;;;;;;12.43;6.50;;;8.10;1.00;;;;;;5053797;28;20877;-74
2022/02/28 11:18:44;;;;;;;10.67;6.60;;;8.10;1.00;;;;;;5061907;28;20412;-74
2022/02/28 11:21:15;;;;;;;10.53;6.17;;;8.30;1.00;;;;;;5042921;28;20463;-75
2022/02/28 11:23:46;;;;;;;10.63;6.20;;;8.30;1.00;;;;;;5070405;28;20412;-75
2022/02/28 11:26:13;;;;;;;9.93;5.83;;;8.40;1.00;;;;;;5055797;28;20816;-75
2022/02/28 11:28:39;;;;;;;10.93;6.10;;;8.60;99.90;;;;;;5058450;28;20413;-75
2022/02/28 11:31:07;;;;;;;12.80;6.37;;;8.70;99.90;;;;;;5072456;28;20420;-76
2022/02/28 11:33:33;;;;;;;12.83;7.07;;;8.80;99.90;;;;;;5057777;28;20449;-76
2022/02/28 11:35:59;;;;;;;10.47;6.70;;;8.80;99.90;;;;;;5067452;28;20822;-76
2022/02/28 11:38:31;;;;;;;11.07;6.30;;;8.70;99.90;;;;;;5055810;28;20463;-74
2022/02/28 11:41:04;;;;;;;10.83;5.53;;;8.70;99.90;;;;;;5048704;28;20544;-75
2022/02/28 11:43:47;;;;;;;11.90;5.77;;;8.70;99.90;;;;;;5052910;28;20418;-74
2022/02/28 11:46:23;;;;;;;11.83;6.10;;;8.70;99.90;;;;;;5058943;28;20422;-75
2022/02/28 11:48:51;;;;;;;11.13;6.90;;;8.70;99.90;;;;;;5053691;28;20418;-75
2022/02/28 11:51:27;;;;;;;8.60;5.80;;;9.20;99.90;;;;;;5055912;28;20440;-77
2022/02/28 11:53:55;;;;;;;11.37;6.13;;;8.80;99.90;;;;;;5066399;28;20513;-76
2022/02/28 11:56:24;;;;;;;11.57;6.90;;;8.90;99.90;;;;;;5065094;28;20427;-75
2022/02/28 11:58:49;;;;;;;11.17;5.70;;;9.00;99.90;;;;;;5055173;28;20395;-75
2022/02/28 12:01:17;;;;;;;10.13;7.10;;;9.10;99.90;;;;;;5058700;28;20427;-75
2022/02/28 12:03:50;;;;;;;12.20;6.40;;;9.20;99.90;;;;;;5065203;28;20663;-75
2022/02/28 12:06:53;;;;;;;11.37;6.67;;;9.30;99.90;;;;;;5072403;28;20409;-75
2022/02/28 12:09:37;;;;;;;9.10;5.43;;;9.20;99.90;;;;;;5039985;28;20885;-76
2022/02/28 12:12:22;;;;;;;13.33;6.30;;;9.30;99.90;;;;;;5018039;28;20523;-76
2022/02/28 12:14:57;;;;;;;9.60;5.47;;;9.20;99.90;;;;;;5022114;28;20875;-75
2022/02/28 12:17:48;;;;;;;9.03;5.83;;;9.20;99.90;;;;;;5014937;28;20430;-75
2022/02/28 12:20:28;;;;;;;10.67;6.40;;;9.20;99.90;;;;;;5010331;28;20420;-76
2022/02/28 12:23:06;;;;;;;8.80;5.90;;;9.20;99.90;;;;;;5031245;28;20411;-76
2022/02/28 12:25:35;;;;;;;10.80;5.90;;;9.40;99.90;;;;;;5031443;28;20447;-75
2022/02/28 12:28:21;;;;;;;11.07;6.50;;;9.40;99.90;;;;;;5031071;28;20444;-75
2022/02/28 12:30:57;;;;;;;9.53;5.50;;;9.40;99.90;;;;;;5008773;28;20415;-75
2022/02/28 12:33:35;;;;;;;8.13;5.60;;;9.60;99.90;;;;;;5030986;28;20419;-75
2022/02/28 12:36:14;;;;;;;7.57;5.20;;;9.60;99.90;;;;;;5030958;28;20912;-75
2022/02/28 12:38:42;;;;;;;9.60;6.27;;;9.70;99.90;;;;;;5025872;28;20418;-75
2022/02/28 12:41:24;;;;;;;9.23;6.00;;;9.80;99.90;;;;;;5024422;28;20455;-75
2022/02/28 12:43:52;;;;;;;16.70;6.70;;;10.00;99.90;;;;;;5047634;28;20428;-75
2022/02/28 12:46:19;;;;;;;10.77;6.20;;;10.00;99.90;;;;;;5055540;28;20445;-75
2022/02/28 12:48:47;;;;;;;8.10;5.60;;;10.10;99.90;;;;;;5072970;28;20428;-75
2022/02/28 12:51:18;;;;;;;10.17;5.90;;;10.10;99.90;;;;;;5072855;28;20520;-75
2022/02/28 12:53:45;;;;;;;9.17;6.20;;;10.30;99.90;;;;;;5073210;28;20405;-74
2022/02/28 12:56:15;;;;;;;12.53;6.50;;;10.30;99.90;;;;;;5056734;28;20770;-74
2022/02/28 12:58:46;;;;;;;11.17;6.43;;;10.30;99.90;;;;;;5054654;28;20513;-82
2022/02/28 13:01:30;;;;;;;9.83;6.77;;;10.10;99.90;;;;;;5054755;28;20445;-75
2022/02/28 13:04:04;;;;;;;10.00;6.00;;;10.10;99.90;;;;;;5056906;28;20422;-75
2022/02/28 13:06:35;;;;;;;10.40;6.13;;;10.50;99.90;;;;;;5058789;28;20752;-74
2022/02/28 13:09:05;;;;;;;10.80;6.13;;;10.40;99.90;;;;;;5061877;28;20430;-74
2022/02/28 13:11:34;;;;;;;13.63;6.20;;;10.40;99.90;;;;;;5062115;28;20429;-74
2022/02/28 13:14:03;;;;;;;8.97;5.83;;;10.30;99.90;;;;;;5057932;28;20896;-75
2022/02/28 13:16:30;;;;;;;8.60;5.53;;;10.30;99.90;;;;;;5062048;28;20452;-73
2022/02/28 13:19:16;;;;;;;11.70;5.90;;;10.30;99.90;;;;;;5067071;28;20440;-74